createdAt,value
2023-03-18T00:01:41.966Z,7.53
2023-03-18T00:04:08.554Z,8.00
2023-03-18T00:06:38.432Z,8.07
2023-03-18T00:09:05.442Z,8.20
2023-03-18T00:11:32.243Z,7.43
2023-03-18T00:13:59.537Z,8.37
2023-03-18T00:16:27.482Z,7.30
2023-03-18T00:18:54.695Z,7.57
2023-03-18T00:21:21.155Z,6.53
2023-03-18T00:23:49.780Z,7.67
2023-03-18T00:26:17.278Z,6.60
2023-03-18T00:28:43.764Z,6.50
2023-03-18T00:31:11.504Z,6.13
2023-03-18T00:33:40.148Z,7.63
2023-03-18T00:36:10.466Z,7.67
2023-03-18T00:38:37.535Z,7.37
2023-03-18T00:41:15.772Z,5.97
2023-03-18T00:43:52.520Z,5.67
2023-03-18T00:46:30.956Z,7.20
2023-03-18T00:49:00.738Z,6.47
2023-03-18T00:51:29.107Z,5.70
2023-03-18T00:53:57.788Z,6.13
2023-03-18T00:56:26.824Z,9.40
2023-03-18T00:58:54.036Z,6.87
2023-03-18T01:01:21.779Z,6.83
2023-03-18T01:03:50.174Z,7.00
2023-03-18T01:06:25.791Z,7.10
2023-03-18T01:08:52.312Z,6.67
2023-03-18T01:11:18.835Z,6.83
2023-03-18T01:13:46.094Z,7.67
2023-03-18T01:16:13.545Z,5.47
2023-03-18T01:18:41.507Z,5.43
2023-03-18T01:21:09.221Z,5.10
2023-03-18T01:23:36.966Z,4.63
2023-03-18T01:26:04.177Z,5.53
2023-03-18T01:28:30.967Z,5.30
2023-03-18T01:30:57.662Z,5.30
2023-03-18T01:33:25.894Z,4.60
2023-03-18T01:35:57.152Z,5.40
2023-03-18T01:38:24.420Z,6.23
2023-03-18T01:40:52.327Z,5.43
2023-03-18T01:43:22.103Z,5.17
2023-03-18T01:45:50.987Z,6.03
2023-03-18T01:48:18.987Z,5.90
2023-03-18T01:50:51.790Z,4.90
2023-03-18T01:53:19.204Z,5.30
2023-03-18T01:55:47.726Z,5.00
2023-03-18T01:58:24.852Z,5.20
2023-03-18T02:00:56.278Z,5.13
2023-03-18T02:03:23.054Z,5.80
2023-03-18T02:05:50.589Z,5.80
2023-03-18T02:08:18.135Z,5.97
2023-03-18T02:10:45.591Z,6.07
2023-03-18T02:13:13.493Z,6.27
2023-03-18T02:15:49.659Z,5.60
2023-03-18T02:18:23.208Z,5.67
2023-03-18T02:20:53.592Z,4.70
2023-03-18T02:23:31.074Z,4.80
2023-03-18T02:26:11.237Z,4.60
2023-03-18T02:28:38.845Z,5.00
2023-03-18T02:31:10.623Z,4.83
2023-03-18T02:33:39.235Z,4.67
2023-03-18T02:36:13.494Z,4.00
2023-03-18T02:38:44.123Z,5.43
2023-03-18T02:41:19.064Z,5.07
2023-03-18T02:43:46.469Z,5.50
2023-03-18T02:46:13.154Z,5.67
2023-03-18T02:48:43.498Z,5.20
2023-03-18T02:51:11.129Z,6.00
2023-03-18T02:53:38.385Z,4.60
2023-03-18T02:56:06.457Z,5.37
2023-03-18T02:58:33.263Z,4.83
2023-03-18T03:01:00.359Z,4.20
2023-03-18T03:03:27.834Z,4.13
2023-03-18T03:05:54.430Z,4.63
2023-03-18T03:08:21.519Z,5.60
2023-03-18T03:10:48.674Z,6.13
2023-03-18T03:13:15.637Z,4.70
2023-03-18T03:15:43.734Z,4.00
2023-03-18T03:18:10.410Z,4.87
2023-03-18T03:20:39.072Z,3.67
2023-03-18T03:23:07.407Z,3.23
2023-03-18T03:25:34.203Z,3.63
2023-03-18T03:28:00.787Z,3.40
2023-03-18T03:30:27.781Z,2.90
2023-03-18T03:32:54.677Z,3.20
2023-03-18T03:35:21.464Z,3.30
2023-03-18T03:37:48.119Z,3.37
2023-03-18T03:40:17.096Z,3.33
2023-03-18T03:42:44.956Z,3.07
2023-03-18T03:45:14.032Z,4.60
2023-03-18T03:47:41.586Z,3.67
2023-03-18T03:50:10.642Z,3.70
2023-03-18T03:52:38.973Z,3.57
2023-03-18T03:55:11.237Z,3.43
2023-03-18T03:57:38.639Z,3.17
2023-03-18T04:00:08.156Z,2.93
2023-03-18T04:02:34.783Z,2.90
2023-03-18T04:05:02.333Z,2.90
2023-03-18T04:07:29.211Z,2.93
2023-03-18T04:09:56.210Z,3.67
2023-03-18T04:12:23.084Z,7.43
2023-03-18T04:14:51.733Z,4.50
2023-03-18T04:17:18.815Z,4.20
2023-03-18T04:19:45.637Z,3.00
2023-03-18T04:22:12.421Z,2.43
2023-03-18T04:24:38.916Z,2.83
2023-03-18T04:27:06.015Z,3.17
2023-03-18T04:29:32.463Z,2.80
2023-03-18T04:31:59.236Z,2.93
2023-03-18T04:34:25.824Z,3.00
2023-03-18T04:36:52.439Z,3.00
2023-03-18T04:39:18.953Z,3.27
2023-03-18T04:41:45.483Z,3.53
2023-03-18T04:44:11.980Z,3.23
2023-03-18T04:46:38.820Z,3.87
2023-03-18T04:49:05.395Z,3.67
2023-03-18T04:51:32.016Z,3.30
2023-03-18T04:53:58.519Z,3.80
2023-03-18T04:56:26.003Z,3.37
2023-03-18T04:58:52.799Z,3.73
2023-03-18T05:01:19.459Z,4.93
2023-03-18T05:03:46.073Z,3.50
2023-03-18T05:06:21.918Z,2.70
2023-03-18T05:08:48.736Z,3.37
2023-03-18T05:11:15.230Z,3.60
2023-03-18T05:13:41.841Z,2.97
2023-03-18T05:16:10.076Z,2.53
2023-03-18T05:18:38.264Z,3.20
2023-03-18T05:21:05.466Z,3.00
2023-03-18T05:23:32.526Z,3.20
2023-03-18T05:25:59.201Z,3.13
2023-03-18T05:28:26.223Z,3.77
2023-03-18T05:30:53.011Z,3.40
2023-03-18T05:33:20.920Z,3.57
2023-03-18T05:35:49.191Z,3.30
2023-03-18T05:38:16.011Z,3.00
2023-03-18T05:40:43.472Z,2.70
2023-03-18T05:43:10.439Z,3.10
2023-03-18T05:45:40.333Z,2.63
2023-03-18T05:48:07.272Z,2.60
2023-03-18T05:50:36.734Z,3.47
2023-03-18T05:53:05.600Z,3.40
2023-03-18T05:55:33.432Z,2.83
2023-03-18T05:58:00.540Z,3.30
2023-03-18T06:00:30.757Z,2.93
2023-03-18T06:02:58.438Z,4.10
2023-03-18T06:05:25.770Z,3.50
2023-03-18T06:07:52.585Z,3.47
2023-03-18T06:10:19.181Z,3.30
2023-03-18T06:12:45.871Z,4.03
2023-03-18T06:15:13.709Z,2.53
2023-03-18T06:17:40.324Z,3.10
2023-03-18T06:20:09.402Z,2.77
2023-03-18T06:22:36.958Z,2.90
2023-03-18T06:25:05.172Z,2.80
2023-03-18T06:27:31.686Z,2.40
2023-03-18T06:30:02.769Z,3.37
2023-03-18T06:32:30.083Z,2.90
2023-03-18T06:34:57.092Z,3.47
2023-03-18T06:37:23.804Z,2.83
2023-03-18T06:39:50.620Z,2.30
2023-03-18T06:42:17.174Z,3.60
2023-03-18T06:44:50.501Z,2.70
2023-03-18T06:47:22.048Z,3.47
2023-03-18T06:49:49.608Z,3.00
2023-03-18T06:52:17.363Z,2.93
2023-03-18T06:54:44.851Z,3.60
2023-03-18T06:57:12.126Z,3.20
2023-03-18T06:59:39.588Z,3.13
2023-03-18T07:02:06.241Z,3.13
2023-03-18T07:04:33.854Z,2.13
2023-03-18T07:07:00.616Z,3.03
2023-03-18T07:09:28.133Z,2.80
2023-03-18T07:11:54.771Z,3.07
2023-03-18T07:14:21.590Z,3.10
2023-03-18T07:16:48.115Z,3.00
2023-03-18T07:19:15.406Z,2.90
2023-03-18T07:21:43.103Z,2.60
2023-03-18T07:24:10.054Z,2.93
2023-03-18T07:26:37.550Z,2.90
2023-03-18T07:29:05.040Z,3.40
2023-03-18T07:31:31.560Z,3.00
2023-03-18T07:33:58.220Z,3.13
2023-03-18T07:36:25.666Z,2.97
2023-03-18T07:38:52.365Z,2.83
2023-03-18T07:41:18.819Z,3.30
2023-03-18T07:43:45.285Z,2.60
2023-03-18T07:46:11.869Z,2.53
2023-03-18T07:48:38.401Z,3.13
2023-03-18T07:51:05.298Z,2.50
2023-03-18T07:53:32.162Z,2.70
2023-03-18T07:55:58.693Z,2.87
2023-03-18T07:58:25.813Z,3.27
2023-03-18T08:00:52.829Z,3.07
2023-03-18T08:03:19.566Z,2.33
2023-03-18T08:05:46.161Z,3.03
2023-03-18T08:08:12.964Z,2.87
2023-03-18T08:10:39.470Z,2.77
2023-03-18T08:13:06.195Z,2.67
2023-03-18T08:15:32.998Z,2.70
2023-03-18T08:18:00.124Z,2.90
2023-03-18T08:20:27.474Z,2.40
2023-03-18T08:22:54.298Z,2.33
2023-03-18T08:25:23.156Z,2.60
2023-03-18T08:27:50.861Z,3.70
2023-03-18T08:30:17.578Z,2.83
2023-03-18T08:32:44.575Z,3.07
2023-03-18T08:35:12.840Z,3.10
2023-03-18T08:37:39.614Z,2.33
2023-03-18T08:40:06.931Z,3.30
2023-03-18T08:42:33.676Z,3.13
2023-03-18T08:45:00.206Z,2.70
2023-03-18T08:47:27.473Z,3.07
2023-03-18T08:49:54.158Z,3.13
2023-03-18T08:52:20.604Z,4.40
2023-03-18T08:54:47.907Z,2.77
2023-03-18T08:57:14.406Z,2.50
2023-03-18T08:59:40.995Z,3.37
2023-03-18T09:02:08.406Z,3.30
2023-03-18T09:04:35.205Z,3.33
2023-03-18T09:07:03.313Z,2.93
2023-03-18T09:09:42.661Z,3.40
2023-03-18T09:12:12.906Z,3.00
2023-03-18T09:14:40.647Z,3.23
2023-03-18T09:17:07.322Z,3.70
2023-03-18T09:19:35.369Z,3.23
2023-03-18T09:22:01.968Z,3.67
2023-03-18T09:24:28.461Z,3.57
2023-03-18T09:26:55.244Z,3.40
2023-03-18T09:29:21.739Z,3.33
2023-03-18T09:31:48.387Z,2.63
2023-03-18T09:34:15.128Z,3.73
2023-03-18T09:36:43.605Z,2.97
2023-03-18T09:39:10.998Z,2.80
2023-03-18T09:42:13.094Z,3.23
2023-03-18T09:44:40.190Z,3.47
2023-03-18T09:47:54.864Z,3.13
2023-03-18T09:50:38.199Z,2.97
2023-03-18T09:53:27.775Z,4.40
2023-03-18T09:55:56.737Z,3.83
2023-03-18T09:58:46.599Z,3.10
2023-03-18T10:01:13.830Z,2.70
2023-03-18T10:03:51.158Z,3.40
2023-03-18T10:06:20.696Z,2.60
2023-03-18T10:08:56.582Z,2.60
2023-03-18T10:11:27.665Z,2.80
2023-03-18T10:13:58.232Z,2.80
2023-03-18T10:16:29.447Z,2.43
2023-03-18T10:18:57.293Z,3.33
2023-03-18T10:21:52.817Z,3.10
2023-03-18T10:24:32.034Z,2.97
2023-03-18T10:27:32.914Z,3.77
2023-03-18T10:30:20.460Z,3.50
2023-03-18T10:33:29.137Z,3.63
2023-03-18T10:36:19.731Z,3.50
2023-03-18T10:38:49.845Z,2.80
2023-03-18T10:41:34.302Z,3.33
2023-03-18T10:44:11.029Z,3.57
2023-03-18T10:46:38.982Z,3.13
2023-03-18T10:49:21.927Z,4.53
2023-03-18T10:52:18.437Z,3.73
2023-03-18T10:54:50.549Z,4.43
2023-03-18T10:57:18.568Z,3.70
2023-03-18T10:59:45.596Z,3.90
2023-03-18T11:02:12.476Z,4.80
2023-03-18T11:04:44.939Z,4.73
2023-03-18T11:07:26.788Z,4.70
2023-03-18T11:09:53.888Z,3.90
2023-03-18T11:12:27.245Z,4.00
2023-03-18T11:14:55.037Z,4.10
2023-03-18T11:17:23.315Z,4.80
2023-03-18T11:20:01.148Z,3.53
2023-03-18T11:22:28.989Z,3.83
2023-03-18T11:25:02.702Z,4.20
2023-03-18T11:27:35.651Z,4.10
2023-03-18T11:30:40.761Z,4.30
2023-03-18T11:33:10.256Z,4.43
2023-03-18T11:35:54.415Z,3.87
2023-03-18T11:38:28.623Z,4.17
2023-03-18T11:41:23.565Z,4.00
2023-03-18T11:44:06.091Z,4.10
2023-03-18T11:46:45.763Z,3.90
2023-03-18T11:49:18.241Z,4.33
2023-03-18T11:52:12.252Z,4.33
2023-03-18T11:54:42.556Z,4.43
2023-03-18T11:57:43.854Z,4.33
2023-03-18T12:00:31.975Z,4.83
2023-03-18T12:02:58.623Z,5.20
2023-03-18T12:05:46.779Z,11.03
2023-03-18T12:08:43.766Z,25.43
2023-03-18T12:11:16.341Z,9.43
2023-03-18T12:13:55.604Z,7.67
2023-03-18T12:16:59.124Z,5.57
2023-03-18T12:19:50.733Z,5.17
2023-03-18T12:22:26.808Z,5.13
2023-03-18T12:25:31.567Z,4.50
2023-03-18T12:28:03.478Z,5.40
2023-03-18T12:30:44.690Z,9.30
2023-03-18T12:33:23.409Z,6.30
2023-03-18T12:36:38.158Z,6.83
2023-03-18T12:39:40.152Z,11.67
2023-03-18T12:42:06.681Z,6.40
2023-03-18T12:44:42.718Z,5.90
2023-03-18T12:47:27.634Z,8.10
2023-03-18T12:49:58.832Z,6.57
2023-03-18T12:52:52.883Z,6.27
2023-03-18T12:55:27.921Z,6.00
2023-03-18T12:58:07.636Z,4.97
2023-03-18T13:00:57.285Z,5.70
2023-03-18T13:03:55.622Z,5.67
2023-03-18T13:06:40.572Z,5.03
2023-03-18T13:09:39.650Z,5.30
2023-03-18T13:12:11.694Z,6.70
2023-03-18T13:14:53.692Z,6.33
2023-03-18T13:17:32.959Z,6.50
2023-03-18T13:20:01.415Z,6.03
2023-03-18T13:22:43.280Z,6.40
2023-03-18T13:25:21.819Z,7.40
2023-03-18T13:28:25.628Z,7.07
2023-03-18T13:31:13.941Z,7.30
2023-03-18T13:34:07.287Z,6.40
2023-03-18T13:36:52.715Z,6.70
2023-03-18T13:39:36.031Z,6.70
2023-03-18T13:42:09.147Z,7.47
2023-03-18T13:44:51.083Z,6.83
2023-03-18T13:47:23.628Z,6.40
2023-03-18T13:50:23.084Z,5.13
2023-03-18T13:52:49.828Z,6.50
2023-03-18T13:55:27.676Z,6.67
2023-03-18T13:57:57.269Z,5.50
2023-03-18T14:00:52.291Z,6.53
2023-03-18T14:03:41.559Z,5.50
2023-03-18T14:06:08.580Z,5.83
2023-03-18T14:08:38.390Z,6.57
2023-03-18T14:11:17.413Z,5.27
2023-03-18T14:13:45.125Z,6.90
2023-03-18T14:16:13.390Z,5.57
2023-03-18T14:18:40.331Z,5.93
2023-03-18T14:21:23.700Z,5.87
2023-03-18T14:24:12.642Z,4.90
2023-03-18T14:26:39.722Z,5.80
2023-03-18T14:29:06.144Z,5.20
2023-03-18T14:31:38.807Z,5.30
2023-03-18T14:34:19.285Z,5.37
2023-03-18T14:36:54.478Z,5.40
2023-03-18T14:39:28.214Z,5.33
2023-03-18T14:41:57.414Z,4.97
2023-03-18T14:44:33.096Z,4.20
2023-03-18T14:47:03.595Z,5.33
2023-03-18T14:49:36.234Z,4.50
2023-03-18T14:52:07.445Z,5.37
2023-03-18T14:54:42.686Z,4.50
2023-03-18T14:57:09.312Z,4.67
2023-03-18T14:59:36.272Z,4.47
2023-03-18T15:02:05.412Z,5.70
2023-03-18T15:04:32.017Z,5.33
2023-03-18T15:07:01.433Z,4.77
2023-03-18T15:09:32.600Z,4.77
2023-03-18T15:11:59.341Z,5.10
2023-03-18T15:14:31.031Z,5.10
2023-03-18T15:17:03.969Z,5.10
2023-03-18T15:19:32.792Z,4.93
2023-03-18T15:22:04.494Z,5.20
2023-03-18T15:24:31.379Z,5.50
2023-03-18T15:27:04.042Z,4.67
2023-03-18T15:29:37.159Z,5.37
2023-03-18T15:32:19.220Z,7.53
2023-03-18T15:34:52.873Z,8.90
2023-03-18T15:37:40.481Z,25.83
2023-03-18T15:40:32.997Z,6.03
2023-03-18T15:43:16.868Z,4.70
2023-03-18T15:45:53.616Z,3.90
2023-03-18T15:48:35.196Z,4.80
2023-03-18T15:51:08.694Z,4.40
2023-03-18T15:53:44.572Z,4.07
2023-03-18T15:56:18.509Z,4.33
2023-03-18T15:58:45.325Z,4.20
2023-03-18T16:01:17.693Z,4.40
2023-03-18T16:03:46.618Z,3.77
2023-03-18T16:06:14.714Z,3.60
2023-03-18T16:08:41.754Z,3.70
2023-03-18T16:11:10.071Z,3.73
2023-03-18T16:13:37.223Z,4.00
2023-03-18T16:16:03.988Z,3.17
2023-03-18T16:18:32.553Z,3.00
2023-03-18T16:20:59.943Z,3.67
2023-03-18T16:23:26.434Z,3.73
2023-03-18T16:25:54.655Z,3.60
2023-03-18T16:28:24.456Z,3.10
2023-03-18T16:30:56.242Z,3.40
2023-03-18T16:33:23.774Z,6.43
2023-03-18T16:35:58.619Z,4.73
2023-03-18T16:38:26.021Z,4.43
2023-03-18T16:40:55.032Z,4.80
2023-03-18T16:43:29.834Z,8.97
2023-03-18T16:46:06.342Z,6.33
2023-03-18T16:48:33.173Z,3.27
2023-03-18T16:51:02.571Z,3.90
2023-03-18T16:53:30.464Z,3.47
2023-03-18T16:56:00.081Z,3.30
2023-03-18T16:58:29.893Z,3.40
2023-03-18T17:00:57.183Z,5.97
2023-03-18T17:03:23.814Z,4.63
2023-03-18T17:05:51.095Z,3.80
2023-03-18T17:08:21.800Z,5.10
2023-03-18T17:10:50.691Z,6.33
2023-03-18T17:13:23.051Z,6.27
2023-03-18T17:15:50.980Z,6.40
2023-03-18T17:18:20.593Z,6.80
2023-03-18T17:20:48.087Z,6.67
2023-03-18T17:23:22.742Z,6.63
2023-03-18T17:25:52.644Z,8.47
2023-03-18T17:28:39.348Z,7.10
2023-03-18T17:31:06.706Z,6.70
2023-03-18T17:33:36.217Z,6.37
2023-03-18T17:36:04.117Z,6.00
2023-03-18T17:38:31.557Z,5.00
2023-03-18T17:41:00.645Z,6.13
2023-03-18T17:43:28.396Z,6.57
2023-03-18T17:45:58.876Z,7.43
2023-03-18T17:48:43.873Z,7.30
2023-03-18T17:51:16.257Z,6.90
2023-03-18T17:53:46.040Z,8.43
2023-03-18T17:56:15.932Z,6.90
2023-03-18T17:58:50.569Z,8.30
2023-03-18T18:01:22.215Z,7.50
2023-03-18T18:03:48.796Z,8.17
2023-03-18T18:06:25.508Z,9.00
2023-03-18T18:08:52.254Z,7.27
2023-03-18T18:11:20.550Z,6.50
2023-03-18T18:13:47.620Z,7.70
2023-03-18T18:16:14.681Z,7.00
2023-03-18T18:18:41.556Z,7.27
2023-03-18T18:21:15.099Z,6.73
2023-03-18T18:23:42.859Z,8.30
2023-03-18T18:26:12.956Z,8.27
2023-03-18T18:28:42.081Z,7.10
2023-03-18T18:31:10.403Z,7.30
2023-03-18T18:33:38.399Z,7.60
2023-03-18T18:36:06.474Z,6.33
2023-03-18T18:38:33.103Z,14.43
2023-03-18T18:41:00.228Z,12.60
2023-03-18T18:43:27.472Z,10.20
2023-03-18T18:45:55.694Z,9.70
2023-03-18T18:48:27.182Z,11.33
2023-03-18T18:50:53.924Z,10.97
2023-03-18T18:53:23.096Z,8.63
2023-03-18T18:55:50.831Z,10.30
2023-03-18T18:58:18.415Z,9.30
2023-03-18T19:00:46.981Z,9.57
2023-03-18T19:03:16.701Z,11.10
2023-03-18T19:05:44.317Z,11.93
2023-03-18T19:08:22.652Z,11.90
2023-03-18T19:10:49.483Z,11.97
2023-03-18T19:13:16.777Z,10.63
2023-03-18T19:15:46.172Z,8.00
2023-03-18T19:18:19.660Z,6.27
2023-03-18T19:20:47.352Z,8.27
2023-03-18T19:23:20.060Z,8.03
2023-03-18T19:25:46.647Z,8.00
2023-03-18T19:28:21.058Z,10.77
2023-03-18T19:30:48.307Z,10.20
2023-03-18T19:33:16.511Z,10.87
2023-03-18T19:35:43.971Z,10.40
2023-03-18T19:38:16.314Z,10.70
2023-03-18T19:40:43.175Z,9.43
2023-03-18T19:43:16.784Z,8.93
2023-03-18T19:45:44.556Z,8.40
2023-03-18T19:48:16.465Z,8.03
2023-03-18T19:50:43.009Z,7.60
2023-03-18T19:53:14.559Z,8.30
2023-03-18T19:55:41.875Z,7.60
2023-03-18T19:58:23.976Z,7.53
2023-03-18T20:00:51.711Z,8.00
2023-03-18T20:03:20.381Z,8.67
2023-03-18T20:05:47.377Z,8.67
2023-03-18T20:08:14.261Z,9.23
2023-03-18T20:10:41.795Z,9.33
2023-03-18T20:13:17.595Z,7.27
2023-03-18T20:15:44.410Z,8.80
2023-03-18T20:18:18.081Z,9.37
2023-03-18T20:20:50.038Z,9.60
2023-03-18T20:23:25.443Z,9.20
2023-03-18T20:25:53.738Z,8.13
2023-03-18T20:28:22.926Z,8.43
2023-03-18T20:30:54.066Z,8.67
2023-03-18T20:33:20.927Z,7.83
2023-03-18T20:35:48.670Z,8.70
2023-03-18T20:38:22.481Z,8.70
2023-03-18T20:40:49.428Z,7.63
2023-03-18T20:43:17.293Z,8.90
2023-03-18T20:45:44.373Z,8.80
2023-03-18T20:48:10.959Z,7.50
2023-03-18T20:50:37.606Z,7.43
2023-03-18T20:53:05.097Z,7.97
2023-03-18T20:55:35.058Z,7.90
2023-03-18T20:58:02.506Z,8.10
2023-03-18T21:00:32.160Z,7.63
2023-03-18T21:03:00.513Z,7.03
2023-03-18T21:05:27.737Z,6.80
2023-03-18T21:07:54.477Z,7.80
2023-03-18T21:10:23.599Z,7.40
2023-03-18T21:12:50.398Z,6.40
2023-03-18T21:15:20.471Z,9.27
2023-03-18T21:17:48.112Z,9.40
2023-03-18T21:20:22.090Z,8.50
2023-03-18T21:22:50.510Z,8.30
2023-03-18T21:25:26.572Z,7.60
2023-03-18T21:27:53.805Z,7.17
2023-03-18T21:30:22.197Z,6.80
2023-03-18T21:32:50.601Z,7.47
2023-03-18T21:35:23.301Z,7.90
2023-03-18T21:37:50.888Z,7.87
2023-03-18T21:40:20.299Z,7.90
2023-03-18T21:42:47.302Z,9.03
2023-03-18T21:45:15.912Z,12.20
2023-03-18T21:47:42.887Z,11.00
2023-03-18T21:50:19.982Z,11.07
2023-03-18T21:52:47.948Z,9.60
2023-03-18T21:55:14.853Z,10.33
2023-03-18T21:57:41.542Z,10.73
2023-03-18T22:00:10.679Z,9.17
2023-03-18T22:02:37.878Z,6.87
2023-03-18T22:05:10.430Z,7.57
2023-03-18T22:07:37.373Z,6.27
2023-03-18T22:10:04.086Z,6.50
2023-03-18T22:12:32.080Z,7.50
2023-03-18T22:15:00.077Z,6.60
2023-03-18T22:17:31.800Z,6.67
2023-03-18T22:19:59.682Z,7.60
2023-03-18T22:22:29.689Z,7.37
2023-03-18T22:24:56.739Z,7.77
2023-03-18T22:27:28.109Z,8.03
2023-03-18T22:29:56.888Z,7.50
2023-03-18T22:32:32.082Z,7.53
2023-03-18T22:34:58.747Z,7.00
2023-03-18T22:37:26.759Z,5.70
2023-03-18T22:39:53.559Z,5.87
2023-03-18T22:42:21.994Z,5.37
2023-03-18T22:44:48.718Z,6.70
2023-03-18T22:47:15.512Z,5.53
2023-03-18T22:49:42.505Z,6.73
2023-03-18T22:52:29.719Z,5.73
2023-03-18T22:55:00.844Z,6.37
2023-03-18T22:57:27.920Z,5.40
2023-03-18T22:59:56.150Z,5.73
2023-03-18T23:02:28.100Z,5.13
2023-03-18T23:04:55.586Z,5.80
2023-03-18T23:07:28.226Z,5.30
2023-03-18T23:09:57.305Z,5.23
2023-03-18T23:12:25.745Z,5.73
2023-03-18T23:14:53.221Z,5.90
2023-03-18T23:17:25.741Z,5.93
2023-03-18T23:19:53.473Z,6.20
2023-03-18T23:22:32.626Z,5.37
2023-03-18T23:24:59.785Z,6.90
2023-03-18T23:27:27.388Z,6.87
2023-03-18T23:29:55.092Z,6.50
2023-03-18T23:32:24.734Z,5.93
2023-03-18T23:34:51.898Z,5.40
2023-03-18T23:37:19.014Z,4.80
2023-03-18T23:39:46.393Z,5.60
2023-03-18T23:42:14.572Z,6.03
2023-03-18T23:44:41.222Z,5.13
2023-03-18T23:47:08.709Z,4.67
2023-03-18T23:49:35.785Z,4.30
2023-03-18T23:52:05.900Z,4.83
2023-03-18T23:54:34.252Z,4.97
2023-03-18T23:57:01.911Z,5.57
2023-03-18T23:59:29.284Z,4.97
